Time;durP1;ratioP1;P1;durP2;ratioP2;P2;SDS_P1;SDS_P2;PMS_P1;PMS_P2;Temp;Humidity;BMP_temperature;BMP_pressure;BME280_temperature;BME280_humidity;BME280_pressure;Samples;Min_cycle;Max_cycle;Signal;HPM_P1;HPM_P2
2024/01/07 00:01:25;;;;;;;8.02;4.22;;;;;;;;;;5012333;28;20203;-69
2024/01/07 00:03:52;;;;;;;11.30;4.43;;;;;;;;;;5031346;28;20251;-69
2024/01/07 00:06:18;;;;;;;7.03;4.57;;;;;;;;;;5031018;28;20242;-70
2024/01/07 00:08:44;;;;;;;5.70;3.97;;;;;;;;;;5032674;28;20033;-69
2024/01/07 00:11:11;;;;;;;9.95;4.57;;;;;;;;;;5033843;28;20067;-70
2024/01/07 00:13:37;;;;;;;8.13;5.28;;;;;;;;;;5033546;28;20256;-69
2024/01/07 00:16:04;;;;;;;7.22;4.75;;;;;;;;;;5030418;28;20245;-70
2024/01/07 00:18:30;;;;;;;6.22;4.15;;;;;;;;;;5031984;28;20926;-70
2024/01/07 00:20:56;;;;;;;7.07;4.80;;;;;;;;;;5032587;28;20239;-69
2024/01/07 00:23:22;;;;;;;6.55;3.90;;;;;;;;;;5031645;28;20547;-69
2024/01/07 00:25:49;;;;;;;6.45;4.72;;;;;;;;;;5033791;28;20043;-69
2024/01/07 00:28:15;;;;;;;8.20;4.78;;;;;;;;;;5032710;28;20249;-70
2024/01/07 00:30:41;;;;;;;6.35;4.43;;;;;;;;;;5033155;28;20298;-70
2024/01/07 00:33:07;;;;;;;5.88;3.83;;;;;;;;;;5050114;28;20044;-70
2024/01/07 00:35:33;;;;;;;8.10;4.45;;;;;;;;;;5030843;28;20140;-70
2024/01/07 00:37:59;;;;;;;9.80;4.68;;;;;;;;;;5018219;28;20052;-70
2024/01/07 00:40:26;;;;;;;9.45;4.68;;;;;;;;;;5032547;28;20052;-69
2024/01/07 00:42:52;;;;;;;10.68;5.00;;;;;;;;;;5036899;28;20049;-70
2024/01/07 00:45:18;;;;;;;5.20;3.65;;;;;;;;;;5036173;28;20293;-69
2024/01/07 00:47:45;;;;;;;6.78;4.43;;;;;;;;;;5036841;28;20029;-69
2024/01/07 00:50:11;;;;;;;5.78;4.03;;;;;;;;;;5032375;28;20894;-69
2024/01/07 00:52:37;;;;;;;7.07;4.80;;;;;;;;;;5032670;28;20206;-70
2024/01/07 00:55:04;;;;;;;5.57;4.20;;;;;;;;;;5034539;28;20047;-69
2024/01/07 00:57:30;;;;;;;9.23;5.38;;;;;;;;;;5035120;28;20290;-69
2024/01/07 00:59:56;;;;;;;7.18;4.82;;;;;;;;;;5032197;28;20045;-69
2024/01/07 01:02:22;;;;;;;6.05;3.70;;;;;;;;;;5033943;28;20060;-69
2024/01/07 01:04:49;;;;;;;6.68;3.95;;;;;;;;;;5035492;28;20045;-70
2024/01/07 01:07:15;;;;;;;6.55;4.05;;;;;;;;;;5032256;28;20516;-70
2024/01/07 01:09:41;;;;;;;7.28;4.80;;;;;;;;;;5050346;28;20047;-70
2024/01/07 01:12:07;;;;;;;7.38;4.50;;;;;;;;;;5034902;28;20041;-70
2024/01/07 01:14:33;;;;;;;8.48;3.85;;;;;;;;;;5050203;28;20392;-70
2024/01/07 01:17:00;;;;;;;7.32;4.53;;;;;;;;;;5031815;28;20041;-69
2024/01/07 01:19:26;;;;;;;11.02;5.50;;;;;;;;;;5033472;28;20056;-69
2024/01/07 01:21:52;;;;;;;7.18;4.90;;;;;;;;;;5035539;28;20052;-69
2024/01/07 01:24:18;;;;;;;6.15;4.05;;;;;;;;;;5035728;28;20069;-70
2024/01/07 01:26:44;;;;;;;7.32;4.70;;;;;;;;;;5036948;28;20279;-70
2024/01/07 01:29:10;;;;;;;9.20;4.30;;;;;;;;;;5035676;28;20044;-70
2024/01/07 01:31:36;;;;;;;7.80;4.68;;;;;;;;;;5036807;28;20156;-69
2024/01/07 01:34:02;;;;;;;6.75;4.28;;;;;;;;;;5036530;28;20048;-69
2024/01/07 01:36:31;;;;;;;6.82;4.32;;;;;;;;;;5038315;28;20071;-69
2024/01/07 01:38:57;;;;;;;9.18;5.50;;;;;;;;;;5037560;28;20060;-69
2024/01/07 01:41:23;;;;;;;7.15;3.70;;;;;;;;;;5037621;28;20051;-69
2024/01/07 01:43:49;;;;;;;6.88;4.65;;;;;;;;;;5037552;28;20040;-69
2024/01/07 01:46:15;;;;;;;9.13;4.63;;;;;;;;;;5037650;28;20401;-69
2024/01/07 01:48:42;;;;;;;6.95;4.65;;;;;;;;;;5036557;28;20052;-70
2024/01/07 01:51:09;;;;;;;5.20;3.90;;;;;;;;;;5037169;28;20618;-70
2024/01/07 01:53:35;;;;;;;6.78;4.28;;;;;;;;;;5034988;28;20400;-70
2024/01/07 01:56:04;;;;;;;7.68;4.22;;;;;;;;;;5035948;28;20424;-70
2024/01/07 01:58:31;;;;;;;6.40;3.92;;;;;;;;;;5037610;28;20750;-70
2024/01/07 02:00:57;;;;;;;6.35;4.38;;;;;;;;;;5035901;28;20036;-70
2024/01/07 02:03:24;;;;;;;8.63;4.25;;;;;;;;;;5037075;28;20135;-68
2024/01/07 02:05:51;;;;;;;6.35;3.85;;;;;;;;;;5037043;28;20128;-70
2024/01/07 02:08:18;;;;;;;7.22;4.40;;;;;;;;;;5036086;28;20037;-70
2024/01/07 02:10:44;;;;;;;6.35;3.85;;;;;;;;;;5036446;28;20670;-70
2024/01/07 02:13:11;;;;;;;6.28;4.25;;;;;;;;;;5035751;28;20388;-70
2024/01/07 02:15:37;;;;;;;8.05;3.90;;;;;;;;;;5035504;28;20290;-70
2024/01/07 02:18:03;;;;;;;5.63;3.67;;;;;;;;;;5035872;28;20413;-70
2024/01/07 02:20:29;;;;;;;7.43;4.10;;;;;;;;;;5033875;28;20135;-68
2024/01/07 02:22:57;;;;;;;7.38;4.13;;;;;;;;;;5034047;28;20135;-69
2024/01/07 02:25:24;;;;;;;6.45;4.13;;;;;;;;;;5034325;28;20931;-69
2024/01/07 02:27:50;;;;;;;7.82;3.83;;;;;;;;;;5035322;28;20048;-69
2024/01/07 02:30:17;;;;;;;7.38;4.03;;;;;;;;;;5035518;28;20040;-68
2024/01/07 02:32:43;;;;;;;5.45;4.15;;;;;;;;;;5033148;28;20101;-69
2024/01/07 02:35:09;;;;;;;5.85;4.07;;;;;;;;;;5034340;28;20045;-70
2024/01/07 02:37:36;;;;;;;7.55;4.57;;;;;;;;;;5033089;28;20055;-69
2024/01/07 02:40:02;;;;;;;5.25;3.45;;;;;;;;;;5035833;28;20049;-69
2024/01/07 02:42:28;;;;;;;4.57;3.15;;;;;;;;;;5034983;28;20513;-68
2024/01/07 02:44:55;;;;;;;6.72;3.97;;;;;;;;;;5035781;28;20289;-69
2024/01/07 02:47:21;;;;;;;6.15;3.85;;;;;;;;;;5050856;28;20059;-69
2024/01/07 02:49:47;;;;;;;5.57;3.80;;;;;;;;;;5034778;28;20040;-69
2024/01/07 02:52:13;;;;;;;5.30;2.88;;;;;;;;;;5033331;28;20044;-70
2024/01/07 02:54:42;;;;;;;7.00;4.53;;;;;;;;;;5016808;28;20445;-68
2024/01/07 02:57:08;;;;;;;5.85;3.95;;;;;;;;;;5036423;28;20563;-69
2024/01/07 02:59:34;;;;;;;5.03;3.03;;;;;;;;;;5035756;28;20224;-69
2024/01/07 03:02:00;;;;;;;6.28;3.83;;;;;;;;;;5034694;28;20056;-69
2024/01/07 03:04:26;;;;;;;5.72;3.83;;;;;;;;;;5034452;28;20066;-69
2024/01/07 03:06:53;;;;;;;7.97;4.03;;;;;;;;;;5034698;28;20536;-69
2024/01/07 03:09:19;;;;;;;5.63;3.17;;;;;;;;;;5033906;28;20167;-70
2024/01/07 03:11:45;;;;;;;5.55;3.90;;;;;;;;;;5034092;28;20644;-69
2024/01/07 03:14:11;;;;;;;5.22;3.50;;;;;;;;;;5016235;28;20113;-69
2024/01/07 03:16:38;;;;;;;5.25;3.40;;;;;;;;;;5034810;28;20109;-69
2024/01/07 03:19:04;;;;;;;4.63;3.42;;;;;;;;;;5034996;28;20049;-69
2024/01/07 03:21:30;;;;;;;5.07;3.30;;;;;;;;;;5035251;28;20044;-70
2024/01/07 03:23:56;;;;;;;8.75;3.95;;;;;;;;;;5034721;28;21271;-69
2024/01/07 03:26:23;;;;;;;6.93;3.85;;;;;;;;;;5034628;28;20041;-69
2024/01/07 03:28:49;;;;;;;6.18;3.88;;;;;;;;;;5030994;28;20049;-69
2024/01/07 03:31:16;;;;;;;9.00;4.50;;;;;;;;;;5033942;28;20039;-69
2024/01/07 03:33:43;;;;;;;6.25;3.35;;;;;;;;;;5034202;28;20207;-70
2024/01/07 03:36:09;;;;;;;5.90;3.85;;;;;;;;;;5034734;28;20068;-69
2024/01/07 03:38:36;;;;;;;5.13;3.10;;;;;;;;;;5029475;28;20037;-69
2024/01/07 03:41:02;;;;;;;4.70;3.08;;;;;;;;;;5032951;28;20166;-69
2024/01/07 03:43:28;;;;;;;7.10;3.95;;;;;;;;;;5032885;28;20401;-69
2024/01/07 03:45:54;;;;;;;4.68;3.45;;;;;;;;;;5034152;28;20520;-71
2024/01/07 03:48:21;;;;;;;5.40;3.00;;;;;;;;;;5032959;28;20045;-69
2024/01/07 03:50:50;;;;;;;4.95;2.78;;;;;;;;;;5031461;28;20180;-68
2024/01/07 03:53:16;;;;;;;8.73;3.30;;;;;;;;;;5032402;28;20152;-69
2024/01/07 03:55:42;;;;;;;3.60;2.28;;;;;;;;;;5032709;28;20155;-68
2024/01/07 03:58:08;;;;;;;4.80;2.90;;;;;;;;;;5036581;28;20507;-69
2024/01/07 04:00:35;;;;;;;6.85;3.28;;;;;;;;;;5036699;28;20444;-69
2024/01/07 04:03:02;;;;;;;4.25;2.50;;;;;;;;;;5030568;28;20561;-69
2024/01/07 04:05:29;;;;;;;4.72;2.63;;;;;;;;;;5032879;28;20137;-69
2024/01/07 04:07:55;;;;;;;5.53;2.65;;;;;;;;;;5031249;28;20048;-69
2024/01/07 04:10:22;;;;;;;6.82;2.60;;;;;;;;;;5030557;28;20186;-69
2024/01/07 04:12:48;;;;;;;9.50;2.53;;;;;;;;;;5032866;28;20067;-69
2024/01/07 04:15:14;;;;;;;4.85;2.70;;;;;;;;;;5033526;28;20473;-69
2024/01/07 04:17:41;;;;;;;4.05;2.33;;;;;;;;;;5032836;28;20063;-69
2024/01/07 04:20:07;;;;;;;3.47;2.53;;;;;;;;;;5032178;28;20064;-70
2024/01/07 04:22:33;;;;;;;4.43;2.70;;;;;;;;;;5031944;28;20079;-67
2024/01/07 04:24:59;;;;;;;4.72;2.33;;;;;;;;;;5014830;28;20243;-68
2024/01/07 04:27:25;;;;;;;3.15;1.90;;;;;;;;;;5033740;28;20214;-69
2024/01/07 04:29:52;;;;;;;3.50;2.30;;;;;;;;;;5032982;28;20135;-68
2024/01/07 04:32:18;;;;;;;5.45;2.20;;;;;;;;;;5032027;28;20059;-68
2024/01/07 04:34:44;;;;;;;4.28;2.63;;;;;;;;;;5032931;28;20305;-69
2024/01/07 04:37:10;;;;;;;3.33;2.03;;;;;;;;;;5033418;28;20123;-70
2024/01/07 04:39:36;;;;;;;4.78;2.85;;;;;;;;;;5030836;28;20503;-70
2024/01/07 04:42:03;;;;;;;4.05;2.20;;;;;;;;;;5033491;28;20264;-70
2024/01/07 04:44:29;;;;;;;3.35;2.13;;;;;;;;;;5033607;28;20241;-69
2024/01/07 04:46:55;;;;;;;4.13;2.28;;;;;;;;;;5033565;28;20094;-69
2024/01/07 04:49:21;;;;;;;3.30;2.40;;;;;;;;;;5015780;28;20070;-68
2024/01/07 04:51:47;;;;;;;4.15;2.75;;;;;;;;;;5030279;28;20220;-69
2024/01/07 04:54:13;;;;;;;3.58;2.50;;;;;;;;;;5030506;28;20417;-69
2024/01/07 04:56:39;;;;;;;2.55;1.92;;;;;;;;;;5037945;28;20225;-69
2024/01/07 04:59:05;;;;;;;3.35;1.98;;;;;;;;;;5052757;28;20048;-69
2024/01/07 05:01:35;;;;;;;5.43;2.58;;;;;;;;;;5038597;28;20493;-70
2024/01/07 05:04:01;;;;;;;3.60;2.20;;;;;;;;;;5035016;28;20492;-69
2024/01/07 05:06:27;;;;;;;4.15;2.50;;;;;;;;;;5038278;28;20412;-69
2024/01/07 05:08:54;;;;;;;3.40;2.80;;;;;;;;;;5036434;28;20082;-68
2024/01/07 05:11:20;;;;;;;4.47;2.10;;;;;;;;;;5035731;28;20117;-68
2024/01/07 05:13:46;;;;;;;3.72;2.00;;;;;;;;;;5035543;28;20044;-69
2024/01/07 05:16:19;;;;;;;7.45;2.10;;;;;;;;;;5035197;28;20397;-68
2024/01/07 05:18:48;;;;;;;;;;;;;;;;;;5035801;28;20542;-69
2024/01/07 05:21:16;;;;;;;2.60;1.80;;;;;;;;;;5037408;28;20094;-69
2024/01/07 05:23:42;;;;;;;2.25;2.00;;;;;;;;;;5037133;28;20199;-69
2024/01/07 05:26:08;;;;;;;3.53;1.83;;;;;;;;;;5036314;28;20268;-69
2024/01/07 05:28:34;;;;;;;3.53;2.00;;;;;;;;;;5033988;28;20045;-69
2024/01/07 05:31:01;;;;;;;2.90;1.95;;;;;;;;;;5036754;28;20255;-69
2024/01/07 05:33:27;;;;;;;2.72;1.52;;;;;;;;;;5051520;28;20036;-69
2024/01/07 05:35:53;;;;;;;3.92;2.33;;;;;;;;;;5036855;28;20044;-69
2024/01/07 05:38:19;;;;;;;3.13;1.67;;;;;;;;;;5034036;28;20097;-69
2024/01/07 05:40:45;;;;;;;2.17;1.65;;;;;;;;;;5036789;28;20590;-69
2024/01/07 05:43:11;;;;;;;3.65;2.03;;;;;;;;;;5035759;28;20283;-69
2024/01/07 05:45:37;;;;;;;3.72;2.03;;;;;;;;;;5035757;28;20135;-70
2024/01/07 05:48:04;;;;;;;3.00;1.92;;;;;;;;;;5034831;28;20636;-69
2024/01/07 05:50:30;;;;;;;3.30;1.67;;;;;;;;;;5035825;28;20044;-69
2024/01/07 05:52:56;;;;;;;3.22;1.80;;;;;;;;;;5033062;28;20040;-70
2024/01/07 05:55:22;;;;;;;3.88;2.65;;;;;;;;;;5036013;28;20040;-69
2024/01/07 05:57:48;;;;;;;3.47;1.83;;;;;;;;;;5034310;28;20049;-70
2024/01/07 06:00:14;;;;;;;2.13;1.55;;;;;;;;;;5035510;28;20161;-68
2024/01/07 06:02:41;;;;;;;4.88;1.92;;;;;;;;;;5050156;28;20064;-68
2024/01/07 06:05:07;;;;;;;3.33;1.63;;;;;;;;;;5034512;28;20211;-69
2024/01/07 06:07:33;;;;;;;2.60;1.65;;;;;;;;;;5035578;28;20731;-69
2024/01/07 06:09:59;;;;;;;2.90;1.85;;;;;;;;;;5051145;28;20041;-69
2024/01/07 06:12:25;;;;;;;3.05;1.50;;;;;;;;;;5036395;28;20156;-69
2024/01/07 06:14:52;;;;;;;3.70;1.45;;;;;;;;;;5037170;28;20623;-70
2024/01/07 06:17:18;;;;;;;2.72;1.42;;;;;;;;;;5037462;28;20048;-69
2024/01/07 06:19:44;;;;;;;2.95;1.80;;;;;;;;;;5038001;28;20126;-69
2024/01/07 06:22:10;;;;;;;4.00;2.17;;;;;;;;;;5035927;28;20535;-69
2024/01/07 06:24:36;;;;;;;2.75;1.65;;;;;;;;;;5040149;28;20079;-69
2024/01/07 06:27:04;;;;;;;2.70;1.60;;;;;;;;;;5036022;28;20407;-69
2024/01/07 06:29:30;;;;;;;2.47;1.23;;;;;;;;;;5037002;28;20120;-69
2024/01/07 06:31:56;;;;;;;3.25;1.50;;;;;;;;;;5033636;28;20087;-70
2024/01/07 06:34:23;;;;;;;2.53;1.65;;;;;;;;;;5035033;28;20252;-69
2024/01/07 06:36:49;;;;;;;3.10;1.65;;;;;;;;;;5034116;28;20041;-69
2024/01/07 06:39:15;;;;;;;3.38;1.45;;;;;;;;;;5032573;28;20242;-70
2024/01/07 06:41:41;;;;;;;2.55;1.63;;;;;;;;;;5015476;28;20068;-70
2024/01/07 06:44:07;;;;;;;1.88;1.40;;;;;;;;;;5035359;28;20040;-69
2024/01/07 06:46:34;;;;;;;2.25;1.25;;;;;;;;;;5028716;28;20048;-70
2024/01/07 06:49:01;;;;;;;2.10;1.55;;;;;;;;;;5033036;28;20055;-69
2024/01/07 06:51:27;;;;;;;2.25;1.25;;;;;;;;;;5034805;28;20056;-69
2024/01/07 06:53:53;;;;;;;2.10;1.30;;;;;;;;;;5033973;28;20100;-68
2024/01/07 06:56:19;;;;;;;3.80;1.45;;;;;;;;;;5034766;28;20056;-69
2024/01/07 06:58:45;;;;;;;4.30;1.85;;;;;;;;;;5034402;28;20040;-69
2024/01/07 07:01:11;;;;;;;4.30;1.60;;;;;;;;;;5034921;28;20127;-70
2024/01/07 07:03:38;;;;;;;2.10;1.38;;;;;;;;;;5032377;28;20496;-69
2024/01/07 07:06:04;;;;;;;2.83;1.98;;;;;;;;;;5032748;28;20238;-68
2024/01/07 07:08:31;;;;;;;3.40;1.70;;;;;;;;;;5034536;28;20128;-69
2024/01/07 07:10:57;;;;;;;3.60;2.33;;;;;;;;;;5033361;28;20048;-69
2024/01/07 07:13:23;;;;;;;2.60;2.03;;;;;;;;;;5032830;28;20041;-70
2024/01/07 07:15:49;;;;;;;3.70;1.67;;;;;;;;;;5032272;28;20397;-69
2024/01/07 07:18:15;;;;;;;8.02;2.17;;;;;;;;;;5033936;28;20056;-68
2024/01/07 07:20:42;;;;;;;8.70;1.80;;;;;;;;;;5033677;28;20198;-68
2024/01/07 07:23:09;;;;;;;2.45;1.30;;;;;;;;;;5001338;28;20137;-69
2024/01/07 07:25:35;;;;;;;4.93;2.13;;;;;;;;;;5037429;28;20040;-69
2024/01/07 07:28:01;;;;;;;2.60;1.45;;;;;;;;;;5033518;28;20049;-69
2024/01/07 07:30:27;;;;;;;3.60;2.08;;;;;;;;;;5035274;28;20267;-69
2024/01/07 07:32:53;;;;;;;4.80;1.55;;;;;;;;;;5034254;28;20173;-69
2024/01/07 07:35:20;;;;;;;2.53;1.40;;;;;;;;;;5035054;28;20628;-69
2024/01/07 07:37:46;;;;;;;5.00;1.60;;;;;;;;;;5016192;28;20048;-70
2024/01/07 07:40:12;;;;;;;3.88;2.47;;;;;;;;;;5028853;28;20193;-69
2024/01/07 07:42:39;;;;;;;4.07;2.20;;;;;;;;;;5032407;28;20405;-69
2024/01/07 07:45:05;;;;;;;1.92;1.38;;;;;;;;;;5032190;28;20128;-69
2024/01/07 07:47:32;;;;;;;2.85;1.48;;;;;;;;;;5034177;28;20545;-69
2024/01/07 07:49:58;;;;;;;2.10;1.20;;;;;;;;;;5050403;28;20109;-69
2024/01/07 07:52:25;;;;;;;2.25;1.40;;;;;;;;;;5033043;28;20048;-70
2024/01/07 07:54:52;;;;;;;3.08;1.90;;;;;;;;;;5032492;28;20512;-69
2024/01/07 07:57:20;;;;;;;2.25;1.35;;;;;;;;;;5045999;28;20040;-69
2024/01/07 07:59:46;;;;;;;1.73;1.38;;;;;;;;;;5033318;28;20049;-69
2024/01/07 08:02:13;;;;;;;3.13;1.98;;;;;;;;;;5034066;28;20307;-70
2024/01/07 08:04:41;;;;;;;2.22;1.27;;;;;;;;;;5034034;28;20099;-71
2024/01/07 08:07:07;;;;;;;2.67;1.63;;;;;;;;;;5033232;28;20067;-69
2024/01/07 08:09:36;;;;;;;3.72;1.77;;;;;;;;;;5030912;28;20081;-69
2024/01/07 08:12:03;;;;;;;3.30;1.45;;;;;;;;;;5032580;28;20101;-70
2024/01/07 08:14:29;;;;;;;1.88;1.30;;;;;;;;;;5031254;28;20393;-69
2024/01/07 08:16:55;;;;;;;2.92;1.70;;;;;;;;;;5030634;28;20041;-70
2024/01/07 08:19:21;;;;;;;5.10;1.90;;;;;;;;;;5029753;28;20053;-70
2024/01/07 08:21:47;;;;;;;3.05;1.58;;;;;;;;;;5034273;28;20041;-69
2024/01/07 08:24:13;;;;;;;2.83;1.70;;;;;;;;;;5031461;28;20389;-69
2024/01/07 08:26:39;;;;;;;2.50;1.73;;;;;;;;;;5031687;28;20041;-70
2024/01/07 08:29:06;;;;;;;2.97;1.65;;;;;;;;;;5032879;28;20239;-70
2024/01/07 08:31:32;;;;;;;2.65;1.73;;;;;;;;;;5032349;28;20548;-70
2024/01/07 08:33:58;;;;;;;2.22;1.35;;;;;;;;;;5031107;28;20032;-70
2024/01/07 08:36:25;;;;;;;1.98;1.25;;;;;;;;;;5032549;28;20163;-69
2024/01/07 08:38:52;;;;;;;4.88;1.42;;;;;;;;;;5031152;28;20041;-70
2024/01/07 08:41:18;;;;;;;2.20;1.50;;;;;;;;;;5033015;28;20195;-70
2024/01/07 08:43:47;;;;;;;2.70;1.50;;;;;;;;;;5048123;28;20055;-70
2024/01/07 08:46:13;;;;;;;3.22;1.70;;;;;;;;;;5030414;28;20107;-70
2024/01/07 08:48:40;;;;;;;3.13;1.60;;;;;;;;;;5015310;28;20063;-69
2024/01/07 08:51:06;;;;;;;4.57;1.60;;;;;;;;;;5030862;28;20178;-69
2024/01/07 08:53:32;;;;;;;2.13;1.45;;;;;;;;;;5027152;28;20129;-68
2024/01/07 08:55:59;;;;;;;3.58;1.95;;;;;;;;;;5014628;28;20064;-69
2024/01/07 08:58:25;;;;;;;2.30;1.67;;;;;;;;;;5032694;28;20048;-69
2024/01/07 09:00:52;;;;;;;3.42;1.80;;;;;;;;;;5030454;28;20099;-70
2024/01/07 09:03:18;;;;;;;2.78;1.67;;;;;;;;;;5032912;28;20053;-70
2024/01/07 09:05:45;;;;;;;3.33;1.90;;;;;;;;;;5031903;28;20053;-70
2024/01/07 09:08:14;;;;;;;2.28;1.42;;;;;;;;;;5031685;28;20045;-70
2024/01/07 09:10:40;;;;;;;2.47;1.52;;;;;;;;;;5032401;28;20118;-70
2024/01/07 09:13:06;;;;;;;2.90;2.17;;;;;;;;;;5033602;28;20326;-70
2024/01/07 09:15:32;;;;;;;2.08;1.42;;;;;;;;;;5014649;28;20665;-70
2024/01/07 09:17:58;;;;;;;4.88;2.83;;;;;;;;;;5045783;28;20129;-70
2024/01/07 09:20:24;;;;;;;2.70;1.48;;;;;;;;;;5028863;28;20044;-70
2024/01/07 09:22:50;;;;;;;6.88;1.90;;;;;;;;;;5029388;28;20044;-70
2024/01/07 09:25:17;;;;;;;2.97;1.70;;;;;;;;;;5025302;28;20075;-69
2024/01/07 09:27:43;;;;;;;2.35;1.42;;;;;;;;;;5028698;28;20037;-70
2024/01/07 09:30:14;;;;;;;2.90;1.95;;;;;;;;;;5029219;28;20046;-70
2024/01/07 09:32:41;;;;;;;2.63;1.73;;;;;;;;;;5047123;28;20371;-70
2024/01/07 09:35:08;;;;;;;4.05;1.80;;;;;;;;;;5029816;28;20224;-70
2024/01/07 09:37:35;;;;;;;3.22;1.92;;;;;;;;;;5032142;28;20166;-70
2024/01/07 09:40:01;;;;;;;3.40;1.70;;;;;;;;;;5030488;28;20521;-70
2024/01/07 09:42:27;;;;;;;4.30;1.80;;;;;;;;;;5036401;28;20037;-70
2024/01/07 09:44:54;;;;;;;3.80;1.65;;;;;;;;;;5051338;28;20044;-70
2024/01/07 09:47:23;;;;;;;4.03;1.58;;;;;;;;;;5035597;28;20283;-70
2024/01/07 09:49:50;;;;;;;4.07;1.95;;;;;;;;;;5052235;28;20155;-70
2024/01/07 09:52:17;;;;;;;4.20;1.92;;;;;;;;;;5035643;28;20508;-70
2024/01/07 09:54:46;;;;;;;4.35;2.70;;;;;;;;;;5035808;28;20242;-70
2024/01/07 09:57:13;;;;;;;4.25;1.70;;;;;;;;;;5035936;28;20223;-70
2024/01/07 09:59:39;;;;;;;2.55;1.40;;;;;;;;;;5052474;28;20496;-70
2024/01/07 10:02:05;;;;;;;2.40;1.45;;;;;;;;;;5034892;28;20047;-70
2024/01/07 10:04:31;;;;;;;4.95;2.28;;;;;;;;;;5035519;28;20554;-71
2024/01/07 10:06:58;;;;;;;3.00;1.63;;;;;;;;;;5035333;28;20059;-70
2024/01/07 10:09:33;;;;;;;3.80;1.73;;;;;;;;;;5033632;28;20036;-70
2024/01/07 10:11:59;;;;;;;7.30;2.53;;;;;;;;;;5035138;28;20238;-70
2024/01/07 10:14:26;;;;;;;3.78;1.75;;;;;;;;;;5035739;28;20568;-69
2024/01/07 10:16:55;;;;;;;3.25;1.50;;;;;;;;;;5035566;28;20044;-69
2024/01/07 10:19:22;;;;;;;3.97;2.20;;;;;;;;;;5034617;28;20499;-69
2024/01/07 10:21:59;;;;;;;2.47;1.60;;;;;;;;;;5035192;28;20044;-69
2024/01/07 10:24:25;;;;;;;4.10;1.90;;;;;;;;;;5034537;28;20048;-69
2024/01/07 10:26:52;;;;;;;3.15;2.00;;;;;;;;;;5034660;28;20556;-69
2024/01/07 10:29:20;;;;;;;2.50;1.58;;;;;;;;;;5036674;28;20292;-69
2024/01/07 10:31:47;;;;;;;2.72;1.48;;;;;;;;;;5033053;28;20183;-69
2024/01/07 10:34:14;;;;;;;2.67;1.52;;;;;;;;;;5051168;28;20061;-69
2024/01/07 10:36:40;;;;;;;5.97;2.10;;;;;;;;;;5033748;28;20645;-69
2024/01/07 10:39:08;;;;;;;2.13;1.52;;;;;;;;;;5034642;28;20079;-70
2024/01/07 10:41:35;;;;;;;4.30;1.77;;;;;;;;;;5034638;28;20080;-69
2024/01/07 10:44:02;;;;;;;3.90;2.28;;;;;;;;;;5035764;28;20181;-69
2024/01/07 10:46:30;;;;;;;3.00;1.27;;;;;;;;;;5032159;28;20060;-69
2024/01/07 10:49:00;;;;;;;3.05;1.63;;;;;;;;;;5035595;28;20219;-70
2024/01/07 10:51:28;;;;;;;2.25;1.58;;;;;;;;;;5032985;28;20136;-69
2024/01/07 10:53:56;;;;;;;3.63;2.00;;;;;;;;;;5033455;28;20226;-70
2024/01/07 10:56:30;;;;;;;2.78;1.65;;;;;;;;;;5034392;28;20124;-69
2024/01/07 10:58:57;;;;;;;3.72;1.80;;;;;;;;;;5033411;28;20066;-69
2024/01/07 11:01:23;;;;;;;4.82;2.05;;;;;;;;;;5032513;28;20132;-70
2024/01/07 11:03:56;;;;;;;2.88;1.88;;;;;;;;;;5034594;28;20056;-70
2024/01/07 11:06:32;;;;;;;6.03;1.90;;;;;;;;;;5035574;28;20998;-70
2024/01/07 11:09:12;;;;;;;2.35;1.65;;;;;;;;;;5033859;28;20212;-70
2024/01/07 11:11:42;;;;;;;3.22;1.88;;;;;;;;;;5035099;28;20052;-69
2024/01/07 11:14:26;;;;;;;2.72;1.88;;;;;;;;;;5032593;28;20109;-68
2024/01/07 11:16:53;;;;;;;2.42;1.60;;;;;;;;;;5035034;28;20048;-69
2024/01/07 11:19:20;;;;;;;2.90;1.67;;;;;;;;;;5034530;28;20278;-69
2024/01/07 11:21:47;;;;;;;2.95;1.70;;;;;;;;;;5035350;28;20048;-69
2024/01/07 11:24:31;;;;;;;2.80;1.77;;;;;;;;;;5033152;28;20187;-69
2024/01/07 11:27:02;;;;;;;5.30;2.75;;;;;;;;;;5033806;28;20492;-70
2024/01/07 11:29:28;;;;;;;10.10;2.50;;;;;;;;;;5033421;28;20052;-70
2024/01/07 11:31:54;;;;;;;5.65;1.92;;;;;;;;;;5030600;28;20139;-70
2024/01/07 11:34:40;;;;;;;2.67;1.77;;;;;;;;;;5034272;28;20208;-70
2024/01/07 11:37:10;;;;;;;4.18;1.85;;;;;;;;;;5048349;28;20052;-70
2024/01/07 11:39:36;;;;;;;2.95;1.85;;;;;;;;;;5033626;28;20055;-70
2024/01/07 11:42:05;;;;;;;3.05;1.80;;;;;;;;;;5032545;28;20091;-70
2024/01/07 11:44:33;;;;;;;1.77;1.20;;;;;;;;;;5033079;28;21300;-69
2024/01/07 11:47:00;;;;;;;5.97;1.80;;;;;;;;;;5031160;28;20392;-70
2024/01/07 11:49:26;;;;;;;2.67;1.58;;;;;;;;;;5032829;28;20093;-68
2024/01/07 11:51:52;;;;;;;4.00;1.90;;;;;;;;;;5033491;28;20041;-69
2024/01/07 11:54:18;;;;;;;2.45;1.35;;;;;;;;;;5032344;28;20166;-69
2024/01/07 11:56:44;;;;;;;4.28;1.63;;;;;;;;;;5014873;28;20493;-69
2024/01/07 11:59:10;;;;;;;2.72;1.40;;;;;;;;;;5034546;28;20217;-69
2024/01/07 12:01:37;;;;;;;2.03;1.13;;;;;;;;;;5034055;28;20119;-70
2024/01/07 12:04:03;;;;;;;3.22;1.95;;;;;;;;;;5032561;28;20428;-66
2024/01/07 12:06:29;;;;;;;2.70;1.38;;;;;;;;;;5032974;28;20321;-68
2024/01/07 12:08:56;;;;;;;4.28;1.90;;;;;;;;;;5031907;28;20135;-68
2024/01/07 12:11:23;;;;;;;3.60;2.03;;;;;;;;;;5032808;28;20114;-69
2024/01/07 12:13:50;;;;;;;2.55;1.50;;;;;;;;;;5031391;28;20701;-69
2024/01/07 12:16:16;;;;;;;2.08;1.25;;;;;;;;;;5032827;28;20045;-69
2024/01/07 12:18:42;;;;;;;3.67;2.05;;;;;;;;;;5028453;28;20048;-69
2024/01/07 12:21:08;;;;;;;1.85;1.05;;;;;;;;;;5032969;28;20045;-69
2024/01/07 12:23:38;;;;;;;2.70;2.17;;;;;;;;;;5030316;28;20040;-70
2024/01/07 12:26:11;;;;;;;3.40;1.23;;;;;;;;;;5033390;28;20044;-71
2024/01/07 12:28:37;;;;;;;2.42;1.35;;;;;;;;;;5036181;28;20040;-70
2024/01/07 12:31:07;;;;;;;1.77;1.00;;;;;;;;;;5033472;28;20052;-70
2024/01/07 12:33:33;;;;;;;2.15;1.40;;;;;;;;;;5034250;28;20764;-70
2024/01/07 12:36:00;;;;;;;1.55;1.13;;;;;;;;;;5033666;28;20605;-70
2024/01/07 12:38:26;;;;;;;3.38;1.83;;;;;;;;;;5032070;28;20691;-69
2024/01/07 12:40:55;;;;;;;1.77;1.30;;;;;;;;;;5033724;28;20295;-70
2024/01/07 12:43:22;;;;;;;2.33;1.17;;;;;;;;;;5031140;28;20228;-70
2024/01/07 12:45:49;;;;;;;1.65;1.30;;;;;;;;;;5033340;28;20044;-69
2024/01/07 12:48:15;;;;;;;2.83;1.30;;;;;;;;;;5032841;28;20037;-70
2024/01/07 12:50:41;;;;;;;2.47;1.27;;;;;;;;;;5033265;28;20044;-70
2024/01/07 12:53:07;;;;;;;2.13;1.30;;;;;;;;;;5048282;28;20253;-70
2024/01/07 12:55:33;;;;;;;3.78;1.73;;;;;;;;;;5034658;28;20622;-70
2024/01/07 12:58:00;;;;;;;2.88;1.13;;;;;;;;;;5033809;28;20044;-70
2024/01/07 13:00:28;;;;;;;3.38;1.42;;;;;;;;;;5033248;28;20402;-70
2024/01/07 13:02:54;;;;;;;2.63;1.55;;;;;;;;;;5029381;28;20060;-70
2024/01/07 13:05:20;;;;;;;4.00;1.60;;;;;;;;;;5030970;28;20060;-69
2024/01/07 13:07:47;;;;;;;1.65;1.10;;;;;;;;;;5033253;28;20191;-69
2024/01/07 13:10:14;;;;;;;1.73;1.30;;;;;;;;;;5028732;28;20460;-69
2024/01/07 13:12:40;;;;;;;2.55;1.13;;;;;;;;;;5031330;28;20083;-70
2024/01/07 13:15:07;;;;;;;2.55;1.80;;;;;;;;;;5033062;28;20040;-69
2024/01/07 13:17:33;;;;;;;2.55;1.50;;;;;;;;;;5035471;28;20211;-69
2024/01/07 13:20:06;;;;;;;1.98;1.10;;;;;;;;;;5035848;28;20297;-69
2024/01/07 13:22:33;;;;;;;3.42;1.55;;;;;;;;;;5034710;28;20301;-69
2024/01/07 13:24:59;;;;;;;4.38;1.52;;;;;;;;;;5035931;28;20150;-69
2024/01/07 13:27:25;;;;;;;2.72;1.50;;;;;;;;;;5016533;28;20217;-69
2024/01/07 13:29:51;;;;;;;2.22;1.45;;;;;;;;;;5036988;28;20045;-70
2024/01/07 13:32:18;;;;;;;3.05;1.50;;;;;;;;;;5034708;28;20091;-69
2024/01/07 13:34:44;;;;;;;2.42;1.45;;;;;;;;;;5028100;28;20108;-69
2024/01/07 13:37:11;;;;;;;2.92;1.52;;;;;;;;;;5028312;28;20036;-69
2024/01/07 13:39:38;;;;;;;3.00;1.65;;;;;;;;;;5029927;28;20053;-69
2024/01/07 13:42:04;;;;;;;3.03;1.48;;;;;;;;;;5035816;28;20043;-69
2024/01/07 13:44:30;;;;;;;7.53;1.75;;;;;;;;;;5036485;28;20389;-69
2024/01/07 13:46:57;;;;;;;2.85;1.30;;;;;;;;;;5034542;28;20044;-69
2024/01/07 13:49:23;;;;;;;3.20;1.50;;;;;;;;;;5031928;28;20405;-69
2024/01/07 13:51:49;;;;;;;2.67;1.48;;;;;;;;;;5035721;28;20143;-69
2024/01/07 13:54:16;;;;;;;2.38;1.38;;;;;;;;;;5036833;28;20052;-68
2024/01/07 13:56:43;;;;;;;2.30;1.58;;;;;;;;;;5036874;28;20075;-69
2024/01/07 13:59:10;;;;;;;2.95;1.38;;;;;;;;;;5041129;28;20431;-69
2024/01/07 14:01:36;;;;;;;2.70;1.23;;;;;;;;;;5021856;28;20045;-69
2024/01/07 14:04:02;;;;;;;2.97;1.50;;;;;;;;;;5038773;28;20539;-69
2024/01/07 14:06:28;;;;;;;2.75;1.58;;;;;;;;;;5038915;28;20040;-69
2024/01/07 14:08:54;;;;;;;3.10;1.50;;;;;;;;;;5038381;28;20581;-69
2024/01/07 14:11:21;;;;;;;2.30;1.58;;;;;;;;;;5037412;28;20339;-69
2024/01/07 14:13:47;;;;;;;3.95;2.00;;;;;;;;;;5038383;28;20283;-68
2024/01/07 14:16:14;;;;;;;2.95;1.50;;;;;;;;;;5037338;28;20206;-69
2024/01/07 14:18:40;;;;;;;2.17;1.45;;;;;;;;;;5035918;28;20632;-68
2024/01/07 14:21:09;;;;;;;3.53;1.60;;;;;;;;;;5018507;28;20048;-68
2024/01/07 14:23:35;;;;;;;3.13;1.70;;;;;;;;;;5035762;28;20048;-68
2024/01/07 14:26:02;;;;;;;2.78;1.80;;;;;;;;;;5035547;28;20089;-68
2024/01/07 14:28:29;;;;;;;4.47;2.53;;;;;;;;;;5036478;28;20041;-68
2024/01/07 14:30:55;;;;;;;2.83;1.58;;;;;;;;;;5036826;28;20045;-69
2024/01/07 14:33:21;;;;;;;5.63;2.05;;;;;;;;;;5036035;28;20313;-68
2024/01/07 14:35:47;;;;;;;3.35;2.05;;;;;;;;;;5052950;28;20124;-68
2024/01/07 14:38:13;;;;;;;4.55;2.20;;;;;;;;;;5037744;28;20598;-69
2024/01/07 14:40:41;;;;;;;2.75;1.83;;;;;;;;;;5038289;28;20482;-69